Time;durP1;ratioP1;P1;durP2;ratioP2;P2;SDS_P1;SDS_P2;PMS_P1;PMS_P2;Temp;Humidity;BMP_temperature;BMP_pressure;BME280_temperature;BME280_humidity;BME280_pressure;Samples;Min_cycle;Max_cycle;Signal;HPM_P1;HPM_P2
2022/09/24 00:01:29;;;;;;;1.47;1.00;;;15.10;98.20;;;;;;5036207;28;20481;-79
2022/09/24 00:03:59;;;;;;;1.40;1.00;;;15.10;98.20;;;;;;5042680;28;20459;-79
2022/09/24 00:06:27;;;;;;;1.50;1.00;;;15.00;98.20;;;;;;5040711;28;20473;-80
2022/09/24 00:08:55;;;;;;;1.40;0.90;;;15.00;98.20;;;;;;5049034;28;20505;-79
2022/09/24 00:11:25;;;;;;;1.50;1.00;;;14.90;98.20;;;;;;5041517;28;20676;-79
2022/09/24 00:13:53;;;;;;;1.50;1.13;;;14.90;98.20;;;;;;5047314;28;20465;-80
2022/09/24 00:16:24;;;;;;;1.50;0.90;;;14.80;98.20;;;;;;5031120;28;20471;-80
2022/09/24 00:18:51;;;;;;;1.47;0.93;;;14.80;98.20;;;;;;5036726;28;20450;-80
2022/09/24 00:21:21;;;;;;;1.50;1.00;;;14.80;98.20;;;;;;5035455;28;21005;-80
2022/09/24 00:23:50;;;;;;;1.50;1.00;;;14.70;98.20;;;;;;5039939;28;20522;-80
2022/09/24 00:29:04;;;;;;;1.50;1.00;;;14.60;98.20;;;;;;5050940;28;20535;-79
2022/09/24 00:31:31;;;;;;;1.50;1.00;;;14.60;98.20;;;;;;5037847;28;20482;-79
2022/09/24 00:34:00;;;;;;;1.50;1.00;;;14.60;98.20;;;;;;5044467;28;20549;-79
2022/09/24 00:36:27;;;;;;;1.50;1.00;;;14.70;98.20;;;;;;5041401;28;20583;-80
2022/09/24 00:38:56;;;;;;;1.50;1.00;;;14.70;98.20;;;;;;5046525;28;20891;-79
2022/09/24 00:41:25;;;;;;;1.47;1.00;;;14.70;98.20;;;;;;5047166;28;20470;-80
2022/09/24 00:43:52;;;;;;;1.50;1.00;;;14.70;98.20;;;;;;5054296;28;20475;-79
2022/09/24 00:46:26;;;;;;;1.47;1.00;;;14.70;98.20;;;;;;5046207;28;20477;-80
2022/09/24 00:48:56;;;;;;;1.47;1.00;;;14.70;98.20;;;;;;5054761;28;20494;-79
2022/09/24 00:51:26;;;;;;;1.50;1.00;;;14.70;98.20;;;;;;5045750;28;20465;-79
2022/09/24 00:53:59;;;;;;;1.47;1.00;;;14.80;98.20;;;;;;5062322;28;20462;-79
2022/09/24 00:56:26;;;;;;;1.50;0.90;;;14.80;98.20;;;;;;5039279;28;20708;-80
2022/09/24 00:58:56;;;;;;;1.50;1.10;;;14.80;98.20;;;;;;5045349;28;20759;-79
2022/09/24 01:01:25;;;;;;;1.47;1.00;;;14.80;98.20;;;;;;5032049;28;20570;-80
2022/09/24 01:03:55;;;;;;;1.47;1.00;;;14.80;98.20;;;;;;5046051;28;20463;-80
2022/09/24 01:06:22;;;;;;;1.50;1.00;;;14.80;98.20;;;;;;5028011;28;20554;-79
2022/09/24 01:08:49;;;;;;;1.50;1.00;;;14.90;98.20;;;;;;5045527;28;20490;-80
2022/09/24 01:11:30;;;;;;;1.47;1.00;;;14.80;98.20;;;;;;5034991;28;20901;-79
2022/09/24 01:14:32;;;;;;;1.50;1.10;;;14.70;98.20;;;;;;5047040;28;20470;-79
2022/09/24 01:17:11;;;;;;;1.47;0.90;;;14.70;98.20;;;;;;5039482;28;20892;-79
2022/09/24 01:20:09;;;;;;;1.50;1.00;;;14.70;98.20;;;;;;5051802;28;21052;-79
2022/09/24 01:22:50;;;;;;;1.40;0.90;;;14.70;98.20;;;;;;5009843;28;20486;-79
2022/09/24 01:25:25;;;;;;;1.50;1.00;;;14.70;98.20;;;;;;5051034;28;20486;-80
2022/09/24 01:28:10;;;;;;;1.50;1.00;;;14.80;98.20;;;;;;5023767;28;20482;-79
2022/09/24 01:30:40;;;;;;;1.50;0.90;;;14.80;98.20;;;;;;5052058;28;20480;-79
2022/09/24 01:33:13;;;;;;;1.50;1.10;;;14.80;98.20;;;;;;5023402;28;20513;-80
2022/09/24 01:35:43;;;;;;;1.43;0.90;;;14.80;98.20;;;;;;5051294;28;20466;-79
2022/09/24 01:38:15;;;;;;;1.47;1.00;;;14.80;98.20;;;;;;5025617;28;20487;-80
2022/09/24 01:40:43;;;;;;;1.50;1.00;;;14.80;98.20;;;;;;5058181;28;20478;-79
2022/09/24 01:43:11;;;;;;;1.47;1.00;;;14.80;98.20;;;;;;5047772;28;20482;-80
2022/09/24 01:45:41;;;;;;;1.43;0.93;;;14.70;98.20;;;;;;5049660;28;20988;-80
2022/09/24 01:48:08;;;;;;;1.50;1.00;;;14.70;98.20;;;;;;5045248;28;20557;-80
2022/09/24 01:50:41;;;;;;;1.50;1.00;;;14.80;98.20;;;;;;5050996;28;20478;-79
2022/09/24 01:53:12;;;;;;;1.50;0.90;;;14.70;98.20;;;;;;5043759;28;20532;-79
2022/09/24 01:55:47;;;;;;;1.50;1.00;;;14.70;98.20;;;;;;5042984;28;20462;-79
2022/09/24 01:58:18;;;;;;;1.43;1.00;;;14.70;98.20;;;;;;5024734;28;20466;-80
2022/09/24 02:00:51;;;;;;;1.43;0.93;;;14.80;98.20;;;;;;5049940;28;20517;-79
2022/09/24 02:03:23;;;;;;;1.50;1.00;;;14.70;98.20;;;;;;5018063;28;20486;-79
2022/09/24 02:05:55;;;;;;;1.50;1.00;;;14.70;98.20;;;;;;5046306;28;20500;-80
2022/09/24 02:08:24;;;;;;;1.50;1.00;;;14.70;98.20;;;;;;5053409;28;20469;-79
2022/09/24 02:10:56;;;;;;;1.47;1.00;;;14.70;98.20;;;;;;5046447;28;20486;-79
2022/09/24 02:13:27;;;;;;;1.50;1.00;;;14.70;98.20;;;;;;5039218;28;20490;-79
2022/09/24 02:15:59;;;;;;;1.50;1.10;;;14.70;98.20;;;;;;5037080;28;21120;-79
2022/09/24 02:18:33;;;;;;;1.50;1.00;;;14.70;98.20;;;;;;5034238;28;20466;-79
2022/09/24 02:21:01;;;;;;;1.47;1.00;;;14.70;98.20;;;;;;5035058;28;20557;-80
2022/09/24 02:23:31;;;;;;;1.50;1.00;;;14.70;98.20;;;;;;5033073;28;20909;-79
2022/09/24 02:26:01;;;;;;;1.50;1.03;;;14.80;98.20;;;;;;5038412;28;20462;-79
2022/09/24 02:28:28;;;;;;;1.43;1.00;;;14.70;98.20;;;;;;5050421;28;20466;-79
2022/09/24 02:31:00;;;;;;;1.47;1.00;;;14.70;98.20;;;;;;5034215;28;20486;-80
2022/09/24 02:36:14;;;;;;;1.50;1.00;;;14.70;98.20;;;;;;5035187;28;20547;-80
2022/09/24 02:38:45;;;;;;;1.47;1.00;;;14.70;98.20;;;;;;5035711;28;20460;-80
2022/09/24 02:41:13;;;;;;;1.40;1.00;;;14.70;98.20;;;;;;5035688;28;21259;-80
2022/09/24 02:43:40;;;;;;;1.50;1.00;;;14.70;98.20;;;;;;5034805;28;20474;-79
2022/09/24 02:46:09;;;;;;;1.50;1.00;;;14.60;98.20;;;;;;5036593;28;22869;-79
2022/09/24 02:48:36;;;;;;;1.50;1.00;;;14.50;98.20;;;;;;5037229;28;20959;-79
2022/09/24 02:51:04;;;;;;;1.43;1.00;;;14.50;98.20;;;;;;5039102;28;20514;-79
2022/09/24 02:53:31;;;;;;;1.50;1.00;;;14.40;98.20;;;;;;5051841;28;20888;-79
2022/09/24 02:55:59;;;;;;;1.43;0.90;;;14.40;98.20;;;;;;5038908;28;20490;-79
2022/09/24 02:58:26;;;;;;;1.43;1.00;;;14.40;98.20;;;;;;5057500;28;20470;-79
2022/09/24 03:00:53;;;;;;;1.50;1.00;;;14.40;98.20;;;;;;5045666;28;20589;-80
2022/09/24 03:03:22;;;;;;;1.43;0.90;;;14.40;98.20;;;;;;5031867;28;20852;-79
2022/09/24 03:05:51;;;;;;;1.47;1.00;;;14.40;98.20;;;;;;5040588;28;20462;-79
2022/09/24 03:08:18;;;;;;;1.47;1.00;;;14.40;98.20;;;;;;5031760;28;20458;-79
2022/09/24 03:10:46;;;;;;;1.50;0.90;;;14.40;98.20;;;;;;5047543;28;20486;-79
2022/09/24 03:13:13;;;;;;;1.50;1.00;;;14.50;98.20;;;;;;5038235;28;20466;-79
2022/09/24 03:15:40;;;;;;;1.50;1.00;;;14.50;98.20;;;;;;5040979;28;20872;-79
2022/09/24 03:18:06;;;;;;;1.50;1.00;;;14.40;98.20;;;;;;5020635;28;20509;-79
2022/09/24 03:20:35;;;;;;;1.50;1.00;;;14.40;98.20;;;;;;5048837;28;20910;-79
2022/09/24 03:23:02;;;;;;;1.50;1.00;;;14.40;98.20;;;;;;5036869;28;21057;-79
2022/09/24 03:25:29;;;;;;;1.50;1.00;;;14.40;98.20;;;;;;5047108;28;20466;-79
2022/09/24 03:27:56;;;;;;;1.50;1.00;;;14.30;98.20;;;;;;5018180;28;20919;-79
2022/09/24 03:33:07;;;;;;;1.50;1.00;;;14.30;98.20;;;;;;5033366;28;20991;-79
2022/09/24 03:35:35;;;;;;;1.40;0.90;;;14.20;98.20;;;;;;5045553;28;20519;-79
2022/09/24 03:38:02;;;;;;;1.47;1.00;;;14.30;98.20;;;;;;5034427;28;20890;-79
2022/09/24 03:40:29;;;;;;;1.47;1.00;;;14.20;98.20;;;;;;5053084;28;20482;-79
2022/09/24 03:42:56;;;;;;;1.40;0.90;;;14.20;98.20;;;;;;5028160;28;20912;-80
2022/09/24 03:45:23;;;;;;;1.50;1.00;;;14.10;98.20;;;;;;5052920;28;20474;-79
2022/09/24 03:47:50;;;;;;;1.50;1.00;;;14.10;98.20;;;;;;5031897;28;20491;-79
2022/09/24 03:50:17;;;;;;;1.50;1.00;;;14.10;98.20;;;;;;5052168;28;20494;-79
2022/09/24 03:52:46;;;;;;;1.50;1.00;;;14.00;98.20;;;;;;5023514;28;20487;-79
2022/09/24 03:55:13;;;;;;;1.50;1.00;;;14.00;98.20;;;;;;5052390;28;20531;-79
2022/09/24 03:57:40;;;;;;;1.50;1.00;;;14.00;98.20;;;;;;5038343;28;20495;-79
2022/09/24 04:00:08;;;;;;;1.50;1.00;;;13.90;98.20;;;;;;5053899;28;20723;-79
2022/09/24 04:02:35;;;;;;;1.50;1.00;;;13.90;98.20;;;;;;5046933;28;20836;-79
2022/09/24 04:05:02;;;;;;;1.50;1.00;;;13.80;98.20;;;;;;5055287;28;20454;-79
2022/09/24 04:07:29;;;;;;;1.83;1.53;;;13.80;98.20;;;;;;5039786;28;20540;-79
2022/09/24 04:09:57;;;;;;;1.50;1.00;;;13.80;98.20;;;;;;5057414;28;20494;-79
2022/09/24 04:12:24;;;;;;;1.50;1.10;;;13.80;98.20;;;;;;5027917;28;20514;-79
2022/09/24 04:14:51;;;;;;;1.50;1.00;;;13.80;98.20;;;;;;5049301;28;20943;-79
2022/09/24 04:17:18;;;;;;;1.50;1.00;;;13.80;98.20;;;;;;5038594;28;20532;-79
2022/09/24 04:19:44;;;;;;;1.50;1.00;;;13.80;98.20;;;;;;5045763;28;20478;-79
2022/09/24 04:22:11;;;;;;;1.47;1.00;;;13.80;98.20;;;;;;5040548;28;20676;-79
2022/09/24 04:24:39;;;;;;;1.50;1.00;;;13.90;98.20;;;;;;5049853;28;20446;-79
2022/09/24 04:27:07;;;;;;;1.50;1.00;;;13.90;98.20;;;;;;5031167;28;20482;-79
2022/09/24 04:29:34;;;;;;;1.50;1.00;;;13.90;98.20;;;;;;5050081;28;20533;-79
2022/09/24 04:32:02;;;;;;;1.50;1.03;;;14.00;98.20;;;;;;5035042;28;21020;-79
2022/09/24 04:34:28;;;;;;;1.50;1.00;;;14.00;98.20;;;;;;5051471;28;20834;-79
2022/09/24 04:36:55;;;;;;;1.50;1.00;;;14.00;98.20;;;;;;5032768;28;20582;-79
2022/09/24 04:39:25;;;;;;;1.50;1.00;;;14.00;98.20;;;;;;5047451;28;20474;-79
2022/09/24 04:41:52;;;;;;;1.50;1.00;;;14.00;98.20;;;;;;5037040;28;20510;-78
2022/09/24 04:44:21;;;;;;;1.50;1.00;;;14.00;98.20;;;;;;5049685;28;20908;-78
2022/09/24 04:46:48;;;;;;;1.50;1.00;;;14.00;98.20;;;;;;5031022;28;20485;-80
2022/09/24 04:49:16;;;;;;;1.50;1.00;;;13.90;98.20;;;;;;5041911;28;20506;-78
2022/09/24 04:51:42;;;;;;;1.50;1.00;;;13.90;98.20;;;;;;5039950;28;20478;-79
2022/09/24 04:54:10;;;;;;;1.43;1.00;;;13.90;98.20;;;;;;5050990;28;20841;-81
2022/09/24 04:56:36;;;;;;;1.50;1.10;;;13.90;98.20;;;;;;5032761;28;20569;-79
2022/09/24 04:59:04;;;;;;;1.50;1.00;;;13.90;98.20;;;;;;5040872;28;20549;-79
2022/09/24 05:01:33;;;;;;;1.50;1.10;;;13.90;98.20;;;;;;5031958;28;20483;-79
2022/09/24 05:04:00;;;;;;;1.50;1.10;;;13.90;98.20;;;;;;5036649;28;20473;-79
2022/09/24 05:06:27;;;;;;;1.43;1.00;;;13.90;98.20;;;;;;5036464;28;20498;-79
2022/09/24 05:08:54;;;;;;;1.50;1.00;;;13.80;98.20;;;;;;5041574;28;20969;-79
2022/09/24 05:11:21;;;;;;;1.50;1.00;;;13.80;98.20;;;;;;5040462;28;20484;-79
2022/09/24 05:13:48;;;;;;;1.47;0.90;;;13.80;98.20;;;;;;5049175;28;20462;-79
2022/09/24 05:16:15;;;;;;;1.40;1.00;;;13.80;98.20;;;;;;5034306;28;20479;-79
2022/09/24 05:18:43;;;;;;;1.50;1.00;;;13.80;98.20;;;;;;5044139;28;20469;-79
2022/09/24 05:21:10;;;;;;;1.50;1.00;;;13.80;98.20;;;;;;5040727;28;20482;-80
2022/09/24 05:23:37;;;;;;;1.50;1.00;;;13.80;98.20;;;;;;5049289;28;20508;-80
2022/09/24 05:28:49;;;;;;;1.50;1.00;;;13.80;98.20;;;;;;5049174;28;20445;-80
2022/09/24 05:31:16;;;;;;;1.50;1.00;;;13.70;98.20;;;;;;5030697;28;20514;-80
2022/09/24 05:33:45;;;;;;;1.50;1.00;;;13.80;98.20;;;;;;5033452;28;20549;-80
2022/09/24 05:36:12;;;;;;;1.50;1.10;;;13.80;98.20;;;;;;5030434;28;20480;-79
2022/09/24 05:38:39;;;;;;;1.50;1.00;;;13.80;98.20;;;;;;5035546;28;20979;-79
2022/09/24 05:41:07;;;;;;;1.50;1.00;;;13.80;98.20;;;;;;5035951;28;20642;-80
2022/09/24 05:43:34;;;;;;;1.47;0.97;;;13.80;98.20;;;;;;5035169;28;20459;-80
2022/09/24 05:46:01;;;;;;;1.50;1.00;;;13.80;98.20;;;;;;5036418;28;20847;-79
2022/09/24 05:48:28;;;;;;;1.50;1.07;;;13.70;98.20;;;;;;5034487;28;20466;-79
2022/09/24 05:50:57;;;;;;;1.50;1.00;;;13.70;98.20;;;;;;5039700;28;20843;-80
2022/09/24 05:53:25;;;;;;;1.50;1.00;;;13.70;98.20;;;;;;5048652;28;20649;-80
2022/09/24 05:55:52;;;;;;;1.50;1.00;;;13.70;98.20;;;;;;5038534;28;20882;-79
2022/09/24 05:58:19;;;;;;;2.80;1.43;;;13.70;98.20;;;;;;5050420;28;20472;-79
2022/09/24 06:00:47;;;;;;;1.47;1.00;;;13.70;98.20;;;;;;5047819;28;20475;-78
2022/09/24 06:03:16;;;;;;;1.50;1.00;;;13.70;98.20;;;;;;5026226;28;20485;-79
2022/09/24 06:05:47;;;;;;;1.50;1.00;;;13.70;98.20;;;;;;5049257;28;20838;-79
2022/09/24 06:08:16;;;;;;;1.50;1.10;;;13.70;98.20;;;;;;5040935;28;20476;-79
2022/09/24 06:10:46;;;;;;;1.50;1.00;;;13.70;98.20;;;;;;5047011;28;20498;-79
2022/09/24 06:13:13;;;;;;;1.50;1.10;;;13.70;98.20;;;;;;5026989;28;20470;-79
2022/09/24 06:15:41;;;;;;;1.50;1.00;;;13.70;98.20;;;;;;5048930;28;20524;-80
2022/09/24 06:18:08;;;;;;;1.50;1.00;;;13.70;98.20;;;;;;5024834;28;20482;-80
2022/09/24 06:20:36;;;;;;;1.50;1.00;;;13.70;98.20;;;;;;5045788;28;20572;-79
2022/09/24 06:23:04;;;;;;;1.50;1.00;;;13.70;98.20;;;;;;5040520;28;20915;-79
2022/09/24 06:25:33;;;;;;;1.50;1.00;;;13.70;98.20;;;;;;5050168;28;20532;-80
2022/09/24 06:28:02;;;;;;;2.50;2.30;;;13.70;98.20;;;;;;5038209;28;20792;-80
2022/09/24 06:30:32;;;;;;;1.50;1.00;;;13.70;98.20;;;;;;5047755;28;20871;-79
2022/09/24 06:33:04;;;;;;;1.50;1.00;;;13.70;98.20;;;;;;5018956;28;20487;-80
2022/09/24 06:35:31;;;;;;;1.50;1.00;;;13.80;98.20;;;;;;5049621;28;20465;-80
2022/09/24 06:37:59;;;;;;;1.50;1.00;;;13.80;98.20;;;;;;5040936;28;21079;-80
2022/09/24 06:40:26;;;;;;;1.50;1.00;;;13.90;98.20;;;;;;5052418;28;20501;-80
2022/09/24 06:42:56;;;;;;;1.50;1.03;;;13.90;98.20;;;;;;5038843;28;20486;-79
2022/09/24 06:45:24;;;;;;;1.50;1.00;;;14.00;98.20;;;;;;5046068;28;20470;-79
2022/09/24 06:47:55;;;;;;;1.43;0.93;;;14.00;98.20;;;;;;5027065;28;20903;-79
2022/09/24 06:50:23;;;;;;;1.50;1.00;;;14.00;98.20;;;;;;5049022;28;20593;-80
2022/09/24 06:52:51;;;;;;;1.50;1.00;;;14.10;98.20;;;;;;5037661;28;20474;-80
2022/09/24 06:55:18;;;;;;;1.50;1.00;;;14.20;98.20;;;;;;5051646;28;20620;-80
2022/09/24 06:57:46;;;;;;;1.50;1.00;;;14.30;98.20;;;;;;5040039;28;20486;-80
2022/09/24 07:00:16;;;;;;;1.50;1.00;;;14.40;98.20;;;;;;5047433;28;20470;-80
2022/09/24 07:02:43;;;;;;;1.50;1.00;;;14.50;98.20;;;;;;5017773;28;20987;-80
2022/09/24 07:05:11;;;;;;;1.50;0.90;;;14.60;98.20;;;;;;5047973;28;20488;-80
2022/09/24 07:07:38;;;;;;;1.50;1.00;;;14.60;98.20;;;;;;5021261;28;20479;-80
2022/09/24 07:10:07;;;;;;;1.47;0.90;;;14.70;98.20;;;;;;5048149;28;20509;-80
2022/09/24 07:12:36;;;;;;;1.50;1.00;;;14.70;98.20;;;;;;5029265;28;20483;-80
2022/09/24 07:15:04;;;;;;;1.50;1.00;;;14.80;98.20;;;;;;5047117;28;20466;-80
2022/09/24 07:17:33;;;;;;;1.50;1.00;;;14.90;98.20;;;;;;5040214;28;20482;-79
2022/09/24 07:20:00;;;;;;;1.40;0.90;;;15.00;98.20;;;;;;5049460;28;20576;-80
2022/09/24 07:22:27;;;;;;;1.50;1.00;;;15.10;98.20;;;;;;5038500;28;20491;-79
2022/09/24 07:24:54;;;;;;;1.50;1.00;;;15.20;98.20;;;;;;5047855;28;20477;-79
2022/09/24 07:27:21;;;;;;;1.50;1.00;;;15.30;98.20;;;;;;5032079;28;20498;-79
2022/09/24 07:29:49;;;;;;;1.50;0.97;;;15.40;98.20;;;;;;5047607;28;20486;-79
2022/09/24 07:32:16;;;;;;;1.50;0.90;;;15.50;98.20;;;;;;5037528;28;20594;-78
2022/09/24 07:34:46;;;;;;;1.50;0.90;;;15.50;98.20;;;;;;5054839;28;20473;-79
2022/09/24 07:37:14;;;;;;;1.50;1.00;;;15.40;98.20;;;;;;5045038;28;20474;-78
2022/09/24 07:39:42;;;;;;;1.50;1.00;;;15.40;98.20;;;;;;5052925;28;20577;-76
2022/09/24 07:42:10;;;;;;;1.50;0.90;;;15.50;98.20;;;;;;5039669;28;20564;-76
2022/09/24 07:44:37;;;;;;;1.50;0.90;;;15.50;98.20;;;;;;5049561;28;20584;-76
2022/09/24 07:47:04;;;;;;;1.50;0.90;;;15.60;98.20;;;;;;5026452;28;20486;-77
2022/09/24 07:49:32;;;;;;;1.50;0.90;;;15.70;98.20;;;;;;5039543;28;20481;-76
2022/09/24 07:52:00;;;;;;;1.50;1.00;;;15.80;98.20;;;;;;5023489;28;20482;-77
2022/09/24 07:54:29;;;;;;;1.50;0.90;;;15.90;98.20;;;;;;5042161;28;21024;-77
2022/09/24 07:56:56;;;;;;;1.50;0.97;;;16.10;98.20;;;;;;5040199;28;20482;-78
2022/09/24 07:59:23;;;;;;;1.50;0.90;;;16.20;98.20;;;;;;5050997;28;20494;-77
2022/09/24 08:01:51;;;;;;;1.50;1.10;;;16.30;98.20;;;;;;5026245;28;20508;-78
2022/09/24 08:04:18;;;;;;;1.50;1.00;;;16.30;98.20;;;;;;5042637;28;20458;-78
2022/09/24 08:06:47;;;;;;;1.50;0.90;;;16.30;98.20;;;;;;5040478;28;20477;-78
2022/09/24 08:09:16;;;;;;;1.50;0.90;;;16.30;98.20;;;;;;5048432;28;20495;-78
2022/09/24 08:11:43;;;;;;;1.50;0.90;;;16.40;98.20;;;;;;5041372;28;20482;-78
2022/09/24 08:14:10;;;;;;;1.50;1.00;;;16.40;98.20;;;;;;5050487;28;20559;-78
2022/09/24 08:16:39;;;;;;;1.50;1.00;;;16.40;98.20;;;;;;5030662;28;20490;-78
2022/09/24 08:19:12;;;;;;;1.50;1.00;;;16.50;98.20;;;;;;5040920;28;20472;-77
2022/09/24 08:21:39;;;;;;;1.50;1.00;;;16.40;98.20;;;;;;5035669;28;21215;-79
2022/09/24 08:24:06;;;;;;;1.50;0.90;;;16.40;98.20;;;;;;5045812;28;20545;-78
2022/09/24 08:26:35;;;;;;;1.60;1.30;;;16.40;98.20;;;;;;5036538;28;20487;-79
2022/09/24 08:29:03;;;;;;;1.50;1.00;;;16.30;98.20;;;;;;5041021;28;20478;-79
2022/09/24 08:31:33;;;;;;;1.47;0.90;;;16.40;98.20;;;;;;5026602;28;20513;-79
2022/09/24 08:34:00;;;;;;;1.50;0.90;;;16.50;98.20;;;;;;5035685;28;20462;-79
2022/09/24 08:36:28;;;;;;;1.50;1.00;;;16.50;98.20;;;;;;5033463;28;20475;-78
2022/09/24 08:38:55;;;;;;;1.70;1.50;;;16.60;98.20;;;;;;5044227;28;20901;-79
2022/09/24 08:41:38;;;;;;;1.50;0.97;;;16.50;98.20;;;;;;5039639;28;20890;-80
2022/09/24 08:47:21;;;;;;;1.73;1.37;;;16.50;98.20;;;;;;5048096;28;20473;-78
2022/09/24 08:47:23;;;;;;;1.50;1.00;;;16.50;98.20;;;;;;5038264;28;20582;-79
2022/09/24 08:49:55;;;;;;;1.50;0.90;;;16.50;98.20;;;;;;5050523;28;20569;-79
2022/09/24 08:52:35;;;;;;;1.60;1.10;;;16.60;98.20;;;;;;5039685;28;20891;-80
2022/09/24 08:55:10;;;;;;;1.50;0.90;;;16.60;98.20;;;;;;5050272;28;20473;-80
2022/09/24 08:57:44;;;;;;;1.63;1.20;;;16.70;98.20;;;;;;5024104;28;20839;-79
2022/09/24 09:00:16;;;;;;;1.50;1.00;;;16.80;98.20;;;;;;5046764;28;20537;-79
2022/09/24 09:02:51;;;;;;;1.50;0.93;;;16.80;98.20;;;;;;5036422;28;20478;-79
2022/09/24 09:05:26;;;;;;;1.60;1.10;;;16.70;98.20;;;;;;5049493;28;20496;-80
2022/09/24 09:08:01;;;;;;;1.97;1.83;;;16.80;98.20;;;;;;5021800;28;20933;-79
2022/09/24 09:10:34;;;;;;;1.50;0.90;;;16.80;98.20;;;;;;5051663;28;20547;-79
2022/09/24 09:13:10;;;;;;;1.50;0.90;;;16.90;98.20;;;;;;5039063;28;20877;-79
2022/09/24 09:15:43;;;;;;;1.50;0.90;;;17.00;98.20;;;;;;5049331;28;20525;-79
2022/09/24 09:18:16;;;;;;;1.50;1.00;;;17.00;98.20;;;;;;5022861;28;20908;-79
2022/09/24 09:20:45;;;;;;;1.50;0.90;;;16.90;98.20;;;;;;5047074;28;20482;-79
2022/09/24 09:23:16;;;;;;;1.50;0.90;;;17.00;98.20;;;;;;5024881;28;20990;-80
2022/09/24 09:25:50;;;;;;;1.50;0.90;;;17.00;98.20;;;;;;5048717;28;20463;-79
2022/09/24 09:28:17;;;;;;;1.50;0.90;;;17.10;98.20;;;;;;5029004;28;20474;-79
2022/09/24 09:30:57;;;;;;;1.50;0.90;;;17.00;98.20;;;;;;5046394;28;20521;-79
2022/09/24 09:33:49;;;;;;;3.00;1.90;;;17.10;98.20;;;;;;5023127;28;20816;-79
2022/09/24 09:36:32;;;;;;;1.50;0.90;;;17.20;98.20;;;;;;5032890;28;20554;-80
2022/09/24 09:39:30;;;;;;;1.50;0.90;;;17.40;98.20;;;;;;5045511;28;20847;-81
2022/09/24 09:42:12;;;;;;;1.50;0.90;;;17.40;98.20;;;;;;5043250;28;20482;-81
2022/09/24 09:44:47;;;;;;;1.50;0.90;;;17.30;98.20;;;;;;5055582;28;20880;-81
2022/09/24 09:47:32;;;;;;;1.50;0.90;;;17.40;98.20;;;;;;5034998;28;20475;-81
2022/09/24 09:50:14;;;;;;;1.50;0.90;;;17.50;98.20;;;;;;5053282;28;20572;-81
2022/09/24 09:52:50;;;;;;;1.50;0.90;;;17.70;98.20;;;;;;5022821;28;21026;-81
2022/09/24 09:55:23;;;;;;;1.67;1.30;;;17.80;98.20;;;;;;5056222;28;20466;-81
2022/09/24 09:58:02;;;;;;;1.50;0.97;;;17.90;98.20;;;;;;5035069;28;20501;-81
2022/09/24 10:00:35;;;;;;;1.50;0.90;;;18.00;98.20;;;;;;5046578;28;20603;-81
2022/09/24 10:03:04;;;;;;;1.60;1.30;;;18.00;98.20;;;;;;5009063;28;20856;-79
2022/09/24 10:05:31;;;;;;;1.47;0.90;;;17.90;98.20;;;;;;5043620;28;20458;-79
2022/09/24 10:07:59;;;;;;;1.50;0.90;;;17.90;98.20;;;;;;5012565;28;20930;-78
2022/09/24 10:10:28;;;;;;;1.70;1.37;;;18.00;98.20;;;;;;5044848;28;20884;-78
2022/09/24 10:13:08;;;;;;;1.50;0.90;;;18.10;98.20;;;;;;5018114;28;20924;-77
2022/09/24 10:15:39;;;;;;;1.50;0.90;;;18.20;98.20;;;;;;5043377;28;20779;-78
2022/09/24 10:18:14;;;;;;;1.50;0.90;;;18.20;98.20;;;;;;5013859;28;20493;-77
2022/09/24 10:20:48;;;;;;;1.50;1.00;;;18.20;98.20;;;;;;5043744;28;20489;-78
2022/09/24 10:23:24;;;;;;;1.50;0.90;;;18.20;98.20;;;;;;5015277;28;20581;-78
2022/09/24 10:26:01;;;;;;;1.50;0.90;;;18.20;98.20;;;;;;5030013;28;20466;-78
2022/09/24 10:31:19;;;;;;;1.93;1.50;;;18.30;98.20;;;;;;5030438;28;20473;-80
2022/09/24 10:33:50;;;;;;;1.50;0.90;;;18.30;98.20;;;;;;5046430;28;20826;-80
2022/09/24 10:36:21;;;;;;;1.50;0.90;;;18.30;98.20;;;;;;5025119;28;20622;-79
2022/09/24 10:38:49;;;;;;;1.50;1.00;;;18.40;98.20;;;;;;5028947;28;20568;-79
2022/09/24 10:41:26;;;;;;;1.50;0.90;;;18.50;98.20;;;;;;5031118;28;21028;-80
2022/09/24 10:43:54;;;;;;;1.50;0.90;;;18.60;98.20;;;;;;5042081;28;20481;-80
2022/09/24 10:46:47;;;;;;;1.50;0.90;;;18.60;98.20;;;;;;5026463;28;21070;-79
2022/09/24 10:49:28;;;;;;;1.47;0.90;;;18.70;98.20;;;;;;5035432;28;20493;-80
2022/09/24 10:52:03;;;;;;;1.50;0.90;;;18.70;98.20;;;;;;5031428;28;20478;-80
2022/09/24 10:54:46;;;;;;;1.50;0.90;;;18.50;98.20;;;;;;5043315;28;20470;-80
2022/09/24 10:57:24;;;;;;;1.50;0.90;;;18.40;98.20;;;;;;5025810;28;20522;-79
2022/09/24 10:59:59;;;;;;;1.50;1.00;;;18.40;98.20;;;;;;5039818;28;20492;-80
2022/09/24 11:02:53;;;;;;;1.47;0.90;;;18.40;98.20;;;;;;5028104;28;20851;-80
2022/09/24 11:05:24;;;;;;;1.50;0.90;;;18.50;98.20;;;;;;5043227;28;21109;-79
2022/09/24 11:08:07;;;;;;;1.47;0.90;;;18.50;98.20;;;;;;5032528;28;20487;-79
2022/09/24 11:11:13;;;;;;;1.50;0.90;;;18.50;98.20;;;;;;5043513;28;20486;-79
2022/09/24 11:13:48;;;;;;;1.50;0.90;;;18.60;98.20;;;;;;5004004;28;20485;-80
2022/09/24 11:16:41;;;;;;;1.50;0.90;;;18.70;98.20;;;;;;5031791;28;20773;-79
2022/09/24 11:19:19;;;;;;;1.43;0.90;;;18.70;98.20;;;;;;5040246;28;21098;-79
2022/09/24 11:22:03;;;;;;;2.17;1.57;;;18.80;98.20;;;;;;5030951;28;20477;-80
2022/09/24 11:24:52;;;;;;;1.50;0.90;;;18.80;98.00;;;;;;5044002;28;20517;-80
2022/09/24 11:27:43;;;;;;;1.50;0.90;;;18.80;97.50;;;;;;5031528;28;20483;-79
2022/09/24 11:30:14;;;;;;;1.50;0.90;;;18.70;98.20;;;;;;5043618;28;20484;-80
2022/09/24 11:33:17;;;;;;;1.50;0.90;;;18.70;98.20;;;;;;5010557;28;20490;-80
2022/09/24 11:36:05;;;;;;;1.50;0.90;;;18.60;97.60;;;;;;5039044;28;20466;-80
2022/09/24 11:38:46;;;;;;;1.43;0.90;;;18.50;98.20;;;;;;5023471;28;20506;-80
2022/09/24 11:41:26;;;;;;;1.60;1.10;;;18.50;98.20;;;;;;5028046;28;20558;-79
2022/09/24 11:44:16;;;;;;;1.97;1.77;;;18.50;98.20;;;;;;5032038;28;20820;-79
2022/09/24 11:46:55;;;;;;;1.50;0.90;;;18.50;98.20;;;;;;5030044;28;20883;-80
2022/09/24 11:49:50;;;;;;;1.43;0.90;;;18.50;98.20;;;;;;5039914;28;20488;-79
2022/09/24 11:52:27;;;;;;;1.50;0.90;;;18.50;98.20;;;;;;5019368;28;20511;-80
2022/09/24 11:55:04;;;;;;;1.47;0.90;;;18.50;98.20;;;;;;5041834;28;20845;-79
2022/09/24 11:57:35;;;;;;;1.50;1.00;;;18.50;98.20;;;;;;5032152;28;20994;-80
2022/09/24 12:00:08;;;;;;;1.60;1.30;;;18.50;98.20;;;;;;5041247;28;20486;-79
2022/09/24 12:02:40;;;;;;;1.43;0.90;;;18.50;98.20;;;;;;5014421;28;20481;-79
2022/09/24 12:05:15;;;;;;;1.43;0.90;;;18.50;98.20;;;;;;5042676;28;20838;-80
2022/09/24 12:07:49;;;;;;;1.50;0.90;;;18.40;98.20;;;;;;5017534;28;20490;-79
2022/09/24 12:10:30;;;;;;;1.50;1.00;;;18.40;97.80;;;;;;5035669;28;20947;-80
2022/09/24 12:13:04;;;;;;;1.50;0.90;;;18.40;98.20;;;;;;5027468;28;20507;-80
2022/09/24 12:15:43;;;;;;;1.40;0.90;;;18.30;98.10;;;;;;5039576;28;21085;-80
2022/09/24 12:18:16;;;;;;;1.50;0.90;;;18.40;97.30;;;;;;5012813;28;20490;-79
2022/09/24 12:20:49;;;;;;;1.47;0.90;;;18.30;96.70;;;;;;5040393;28;20486;-81
2022/09/24 12:23:22;;;;;;;1.50;0.90;;;18.30;96.40;;;;;;5031529;28;20466;-80
2022/09/24 12:25:52;;;;;;;1.47;0.90;;;18.30;96.90;;;;;;5029141;28;21015;-80
2022/09/24 12:33:58;;;;;;;1.47;0.90;;;18.40;96.70;;;;;;4991898;28;20469;-80
2022/09/24 12:36:39;;;;;;;1.47;0.90;;;18.50;97.00;;;;;;5027660;28;20478;-80
2022/09/24 12:39:10;;;;;;;1.50;0.90;;;18.60;95.40;;;;;;5043678;28;20485;-80
2022/09/24 12:41:42;;;;;;;1.60;1.00;;;18.70;95.30;;;;;;5031143;28;20487;-80
2022/09/24 12:44:18;;;;;;;1.50;0.90;;;18.80;95.10;;;;;;5041221;28;20556;-80
2022/09/24 12:46:51;;;;;;;1.43;0.90;;;18.70;94.50;;;;;;5030612;28;20473;-80
2022/09/24 12:49:30;;;;;;;1.50;1.20;;;18.70;94.90;;;;;;5041692;28;20495;-80
2022/09/24 12:51:59;;;;;;;1.50;0.97;;;18.80;95.20;;;;;;5028902;28;20549;-80
2022/09/24 12:54:30;;;;;;;1.50;0.90;;;18.90;95.80;;;;;;5043143;28;21087;-80
2022/09/24 12:57:13;;;;;;;1.50;1.00;;;19.00;94.90;;;;;;5030637;28;20565;-80
2022/09/24 12:59:50;;;;;;;1.50;0.90;;;19.00;93.90;;;;;;5043643;28;20518;-80
2022/09/24 13:02:19;;;;;;;1.50;0.90;;;19.00;93.90;;;;;;5019609;28;20484;-80
2022/09/24 13:05:19;;;;;;;1.50;0.90;;;19.00;94.50;;;;;;5045298;28;20858;-80
2022/09/24 13:07:58;;;;;;;1.50;1.00;;;19.00;94.70;;;;;;5032891;28;20565;-80
2022/09/24 13:10:27;;;;;;;1.50;0.90;;;18.90;94.50;;;;;;5048639;28;20536;-80
2022/09/24 13:12:56;;;;;;;2.77;1.50;;;18.90;95.30;;;;;;5021573;28;20537;-81
2022/09/24 13:15:35;;;;;;;1.50;1.00;;;18.90;94.60;;;;;;5048947;28;20501;-80
2022/09/24 13:18:22;;;;;;;1.50;0.90;;;19.00;94.70;;;;;;5015838;28;20869;-80
2022/09/24 13:21:00;;;;;;;1.50;0.97;;;19.00;94.40;;;;;;5037038;28;20486;-80
2022/09/24 13:23:34;;;;;;;1.50;0.90;;;19.10;95.70;;;;;;5044535;28;20462;-80
2022/09/24 13:26:03;;;;;;;1.73;1.63;;;19.10;95.60;;;;;;5030741;28;20467;-81
2022/09/24 13:28:33;;;;;;;1.50;0.90;;;19.20;95.30;;;;;;5040360;28;20462;-80
2022/09/24 13:31:09;;;;;;;1.50;0.90;;;19.20;95.40;;;;;;5033327;28;20498;-80